• Join FlightAware (Why Join?)
  • Login
  • US Flag 
01:03PM EDT


 

Airport Tracker/Info


-or-


 

Live Flight TrackerFlight Track Log ✈ AAL1326 ✈ 11-Apr-2013 ✈ KMCI - KORD

Flight Track Log - Related Links

Times and Time Zones

All times are in EDT time to prevent confusion due to time zone crossing. See the AAL1326 flight status page for this flight to view local times or setup timezone preferences in your user account.

Time Position Orientation Groundspeed Altitude Reporting Facility
EDT Latitude Longitude Course Direction KTS MPH feet Rate Location/Type
07:05PM 39.4884 -94.4693 41° Northeast  Level FlightAware Approximate
07:05PM 39.4170 -94.6690 41° Northeast 281 323 7,700  Level FlightAware
07:05PM 39.4430 -94.6300 49° Northeast 305 351 8,700 2,460 Climbing FlightAware
07:06PM 39.4870 -94.5620 50° Northeast 323 372 10,800 2,220 Climbing FlightAware
07:07PM 39.5250 -94.5040 50° Northeast 358 412 11,900 2,400 Climbing FlightAware
07:07PM 39.5760 -94.4260 50° Northeast 370 426 14,200 2,820 Climbing FlightAware
07:08PM 39.6200 -94.3570 50° Northeast 388 447 15,900 2,400 Climbing FlightAware
07:09PM 39.6690 -94.2830 49° Northeast 408 470 17,400 2,640 Climbing FlightAware
07:09PM 39.7240 -94.1970 50° Northeast 411 473 19,700 2,820 Climbing FlightAware
07:10PM 39.7730 -94.1200 50° Northeast 417 480 21,400 2,220 Climbing FlightAware
07:11PM 39.8240 -94.0360 52° Northeast 427 491 22,900 1,080 Climbing FlightAware
07:11PM 39.8760 -93.9500 52° Northeast 429 494 23,000 60 Climbing FlightAware
07:12PM 39.9320 -93.8570 52° Northeast 428 493 23,000 480 Level FlightAware
07:13PM 39.9820 -93.7760 51° Northeast 442 509 23,700 1,260 Climbing FlightAware
07:14PM 40.0360 -93.6910 50° Northeast 460 529 24,700 1,440 Climbing FlightAware
07:14PM 40.0990 -93.6000 48° Northeast 474 545 25,800 1,440 Climbing FlightAware
07:15PM 40.1390 -93.5390 49° Northeast 483 556 26,500 1,740 Climbing FlightAware
07:16PM 40.2150 -93.4010 54° Northeast 490 564 28,300 1,920 Climbing FlightAware
07:17PM 40.2900 -93.2710 53° Northeast 488 562 30,100 1,440 Climbing FlightAware
07:17PM 40.3430 -93.1830 52° Northeast 488 562 30,600 1,080 Climbing FlightAware
07:18PM 40.3760 -93.1130 58° Northeast 483 556 31,300 600 Climbing FlightAware
07:18PM 40.4130 -93.0090 65° Northeast 483 556 31,300 660 Level FlightAware
07:19PM 40.4010 -92.9520 105° East 459 528 32,000 720 Climbing FlightAware
07:19PM 40.4140 -92.8360 82° East 464 534 32,000  Level FlightAware
07:20PM 40.4280 -92.7150 81° East 463 533 32,000 120 Level FlightAware
07:21PM 40.4390 -92.6100 82° East 460 529 32,200 660 Climbing FlightAware
07:21PM 40.4500 -92.4940 83° East 465 535 32,900 600 Climbing FlightAware
07:22PM 40.4600 -92.3980 82° East 469 540 33,000 60 Climbing FlightAware
07:23PM 40.4740 -92.2470 83° East 468 539 33,000  Level FlightAware
07:24PM 40.4870 -92.1220 82° East 467 537 33,000  Level FlightAware
07:24PM 40.4960 -92.0250 83° East 466 536 33,000  Level FlightAware
07:25PM 40.5090 -91.8830 83° East 465 535 33,000  Level FlightAware
07:26PM 40.5190 -91.7850 82° East 464 534 33,000  Level FlightAware
07:26PM 40.5300 -91.6670 83° East 464 534 33,000  Level FlightAware
07:27PM 40.5410 -91.5470 83° East 463 533 33,000  Level FlightAware
07:28PM 40.5520 -91.4380 82° East 466 536 33,000  Level FlightAware
07:29PM 40.5900 -91.2990 70° East 486 559 33,000  Level FlightAware
07:29PM 40.6380 -91.1580 66° East 493 567 33,000  Level FlightAware
07:30PM 40.6760 -91.0470 66° East 491 565 33,000 -360 Level FlightAware
07:31PM 40.7160 -90.9290 66° East 486 559 32,500 -900 Descending FlightAware
07:32PM 40.7540 -90.8160 66° East 486 559 31,800 -1,080 Descending FlightAware
07:32PM 40.7900 -90.7090 66° East 487 560 31,100 -1,020 Descending FlightAware
07:33PM 40.8290 -90.5920 66° East 484 557 30,400 -1,020 Descending FlightAware
07:34PM 40.8670 -90.4780 66° East 483 556 29,700 -1,020 Descending FlightAware
07:34PM 40.9050 -90.3630 66° East 483 556 29,000 -1,020 Descending FlightAware
07:35PM 40.9440 -90.2490 66° East 476 548 28,300 -1,680 Descending FlightAware
07:36PM 40.9770 -90.1460 67° East 473 544 26,800 -1,860 Descending FlightAware
07:36PM 41.0140 -90.0330 67° East 459 528 25,700 -1,560 Descending FlightAware
07:37PM 41.0490 -89.9300 66° East 443 510 24,600 -1,200 Descending FlightAware
07:38PM 41.0840 -89.8210 67° East 436 502 24,000 -480 Descending FlightAware
07:39PM 41.1180 -89.7160 67° East 436 502 24,000 -540 Level FlightAware
07:39PM 41.1500 -89.6180 67° East 433 498 23,300 -1,380 Descending FlightAware
07:40PM 41.1860 -89.5240 63° Northeast 429 494 22,200 -1,680 Descending FlightAware
07:41PM 41.2270 -89.4220 62° Northeast 419 482 21,000 -1,320 Descending FlightAware
07:41PM 41.2610 -89.3370 62° Northeast 397 457 20,400 -1,440 Descending FlightAware
07:42PM 41.3030 -89.2340 61° Northeast 387 445 19,000 -2,220 Descending FlightAware
07:43PM 41.3340 -89.1540 63° Northeast 399 459 17,300 -2,280 Descending FlightAware
07:43PM 41.3750 -89.0530 62° Northeast 388 447 15,800 -1,800 Descending FlightAware
07:44PM 41.4040 -88.9810 62° Northeast 376 433 14,900 -1,620 Descending FlightAware
07:45PM 41.4390 -88.8920 62° Northeast 364 419 13,700 -1,740 Descending FlightAware
07:46PM 41.4750 -88.8020 62° Northeast 354 407 12,300 -1,740 Descending FlightAware
07:46PM 41.5050 -88.7250 62° Northeast 352 405 11,300 -780 Descending FlightAware
07:47PM 41.5330 -88.6540 62° Northeast 352 405 11,300  Level FlightAware
07:48PM 41.5660 -88.5700 62° Northeast 351 404 11,300 -240 Level FlightAware
07:48PM 41.5980 -88.4910 62° Northeast 365 420 11,000 -600 Descending FlightAware
07:49PM 41.6400 -88.4140 54° Northeast 364 419 10,500 -540 Descending FlightAware
07:50PM 41.6910 -88.3390 48° Northeast 362 417 10,300 -180 Descending FlightAware
07:50PM 41.7390 -88.2680 48° Northeast 361 415 10,300  Level FlightAware
07:51PM 41.7850 -88.2130 42° Northeast 367 422 10,300  Level FlightAware
07:52PM 41.8470 -88.1540 35° Northeast 339 390 10,300 -360 Level FlightAware
07:53PM 41.8980 -88.1040 36° Northeast 315 362 9,800 -720 Descending FlightAware
07:53PM 41.9170 -88.0860 35° Northeast 311 358 9,600 -1,080 Descending FlightAware
07:53PM 41.9440 -88.0580 38° Northeast 302 348 9,100 -1,200 Descending FlightAware
07:54PM 41.9750 -88.0120 48° Northeast 294 338 8,500 -1,200 Descending FlightAware
07:54PM 41.9890 -87.9770 62° Northeast 292 336 8,000 -1,320 Descending FlightAware
07:55PM 42.0080 -87.9280 62° Northeast 293 337 7,300 -780 Descending FlightAware
07:55PM 42.0240 -87.8840 64° Northeast 290 334 7,300  Level FlightAware
07:55PM 42.0390 -87.8470 61° Northeast 288 331 7,300  Level FlightAware
07:56PM 42.0600 -87.7900 64° Northeast 289 333 7,300 -240 Level FlightAware
07:56PM 42.0720 -87.7580 63° Northeast 290 334 7,100 -780 Descending FlightAware
07:57PM 42.0900 -87.7010 67° East 274 315 6,600 -780 Descending FlightAware
07:57PM 42.0950 -87.6540 82° East 261 300 6,300 -360 Descending FlightAware
07:58PM 42.0990 -87.6140 82° East 252 290 6,300 -600 Level FlightAware
07:58PM 42.1030 -87.5690 83° East 250 288 5,800 -1,140 Descending FlightAware
07:59PM 42.0980 -87.5310 100° East 243 280 5,300 -720 Descending FlightAware
07:59PM 42.0950 -87.4920 96° East 244 281 5,200 -540 Descending FlightAware
08:00PM 42.0940 -87.4620 93° East 244 281 4,900 -960 Descending FlightAware
08:00PM 42.0870 -87.4270 105° East 230 265 4,500 -900 Descending FlightAware
08:00PM 42.0800 -87.4190 140° Southeast 222 255 4,400 -420 Descending FlightAware
08:00PM 42.0620 -87.4130 166° South 210 242 4,300 -180 Descending FlightAware
08:01PM 42.0360 -87.4090 173° South 210 242 4,300  Level FlightAware
08:01PM 42.0250 -87.4080 176° South 210 242 4,300  Level FlightAware
08:01PM 42.0100 -87.4180 206° Southwest 200 230 4,300  Level FlightAware
08:02PM 42.0060 -87.4330 250° West 205 236 4,300  Level FlightAware
08:02PM 42.0030 -87.4630 262° West 207 238 4,300  Level FlightAware
08:02PM 42.0010 -87.4990 266° West 207 238 4,300  Level FlightAware
08:03PM 42.0030 -87.5480 273° West 199 229 4,300  Level FlightAware
08:04PM 42.0030 -87.5950 270° West 179 206 4,300  Level FlightAware
08:04PM 42.0030 -87.6260 270° West 179 206 4,300  Level FlightAware
08:05PM 42.0030 -87.6520 270° West 181 208 4,300 -240 Level FlightAware
08:05PM 42.0030 -87.6880 270° West 184 212 4,100 -660 Descending FlightAware
08:06PM 42.0030 -87.7180 270° West 184 212 3,700 -1,080 Descending FlightAware
08:06PM 42.0030 -87.7340 270° West 182 209 3,400 -1,080 Descending FlightAware
08:06PM 42.0030 -87.7690 270° West 177 204 2,900 -900 Descending FlightAware
08:07PM 42.0030 -87.7980 270° West 176 203 2,500 -900 Descending FlightAware
08:08PM 42.0030 -87.8500 270° West 142 163 1,700 -780 Descending FlightAware
08:08PM 42.0030 -87.8710 270° West 146 168 1,500 -780 Descending FlightAware
08:09PM 42.0030 -87.9020 270° West 147 169 1,000 -780 Descending FlightAware
08:09PM 42.0030 -87.9090 270° West 143 165 1,000 -180 Level FlightAware
08:09PM 42.0030 -87.9290 270° West 141 162 900 -240 Descending FlightAware